Time;durP1;ratioP1;P1;durP2;ratioP2;P2;SDS_P1;SDS_P2;PMS_P1;PMS_P2;Temp;Humidity;BMP_temperature;BMP_pressure;BME280_temperature;BME280_humidity;BME280_pressure;Samples;Min_cycle;Max_cycle;Signal;HPM_P1;HPM_P2
2022/07/30 00:02:28;;;;;;;2.22;1.98;;;21.30;99.90;;;;;;10606661;27;20193;-88
2022/07/30 00:07:31;;;;;;;2.08;1.98;;;21.30;99.90;;;;;;10606685;27;20248;-89
2022/07/30 00:12:33;;;;;;;1.95;1.85;;;21.40;99.90;;;;;;10606361;27;20212;-88
2022/07/30 00:17:36;;;;;;;4.50;1.83;;;21.30;99.90;;;;;;10624847;27;20603;-88
2022/07/30 00:22:39;;;;;;;2.15;1.80;;;21.30;99.90;;;;;;10624285;27;20197;-88
2022/07/30 00:27:41;;;;;;;2.97;2.25;;;21.30;99.90;;;;;;10624257;27;20204;-88
2022/07/30 00:32:44;;;;;;;3.75;2.00;;;21.30;99.90;;;;;;10589032;27;20220;-88
2022/07/30 00:37:47;;;;;;;2.58;1.98;;;21.20;99.90;;;;;;10623711;27;20206;-88
2022/07/30 00:42:50;;;;;;;1.65;1.55;;;21.20;99.90;;;;;;10605043;27;20331;-88
2022/07/30 00:47:52;;;;;;;1.70;1.60;;;21.30;99.90;;;;;;10604967;27;20200;-88
2022/07/30 00:52:55;;;;;;;2.13;1.98;;;21.30;99.90;;;;;;10604737;27;20224;-88
2022/07/30 00:57:58;;;;;;;1.70;1.60;;;21.30;99.90;;;;;;10623550;28;20615;-88
2022/07/30 01:03:01;;;;;;;2.20;2.00;;;21.30;99.90;;;;;;10604779;28;20204;-88
2022/07/30 01:08:04;;;;;;;1.92;1.83;;;21.30;99.90;;;;;;10605555;28;20586;-88
2022/07/30 01:13:07;;;;;;;1.80;1.67;;;21.30;99.90;;;;;;10604231;28;20254;-88
2022/07/30 01:18:11;;;;;;;2.20;1.73;;;21.30;99.90;;;;;;10604793;28;20192;-88
2022/07/30 01:23:33;;;;;;;2.15;1.88;;;21.30;99.90;;;;;;10622229;28;20570;-88
2022/07/30 01:28:41;;;;;;;1.85;1.75;;;21.30;99.90;;;;;;10603883;28;20212;-88
2022/07/30 01:33:47;;;;;;;2.22;1.83;;;21.30;99.90;;;;;;10587354;28;20224;-88
2022/07/30 01:38:51;;;;;;;1.92;1.83;;;21.20;99.90;;;;;;10604563;28;20606;-88
2022/07/30 01:43:55;;;;;;;1.60;1.50;;;21.30;99.90;;;;;;10622316;28;20609;-88
2022/07/30 01:48:59;;;;;;;2.03;1.90;;;21.20;99.90;;;;;;10603386;28;20245;-88
2022/07/30 01:54:08;;;;;;;2.03;1.73;;;21.20;99.90;;;;;;10587584;28;20224;-88
2022/07/30 01:59:15;;;;;;;1.90;1.80;;;21.20;99.90;;;;;;10603525;28;20197;-88
2022/07/30 02:04:21;;;;;;;2.67;1.98;;;21.20;99.90;;;;;;10605671;27;20204;-88
2022/07/30 02:09:30;;;;;;;1.67;1.58;;;21.20;99.90;;;;;;10610678;27;20201;-88
2022/07/30 02:15:07;;;;;;;2.08;1.83;;;21.20;99.90;;;;;;10610782;27;20277;-88
2022/07/30 02:20:12;;;;;;;1.73;1.63;;;21.20;99.90;;;;;;10629270;27;20197;-88
2022/07/30 02:25:19;;;;;;;1.88;1.67;;;21.20;99.90;;;;;;10610115;27;20200;-88
2022/07/30 02:30:25;;;;;;;1.67;1.58;;;21.20;99.90;;;;;;10610510;27;20542;-88
2022/07/30 02:35:30;;;;;;;2.25;1.70;;;21.20;99.90;;;;;;10628576;27;20270;-88
2022/07/30 02:40:34;;;;;;;2.03;1.83;;;21.20;99.90;;;;;;10609580;27;20569;-88
2022/07/30 02:45:38;;;;;;;2.35;1.48;;;21.20;99.90;;;;;;10609824;27;20204;-88
2022/07/30 02:50:42;;;;;;;1.77;1.67;;;21.20;99.90;;;;;;10609813;27;20549;-89
2022/07/30 02:55:46;;;;;;;1.50;1.40;;;21.30;99.90;;;;;;10608702;27;20224;-88
2022/07/30 03:00:52;;;;;;;2.10;1.90;;;21.20;99.90;;;;;;10608626;27;20257;-89
2022/07/30 03:05:56;;;;;;;2.03;1.70;;;21.20;99.90;;;;;;10608351;27;20204;-89
2022/07/30 03:11:02;;;;;;;2.33;1.70;;;21.20;99.90;;;;;;10591219;27;20555;-89
2022/07/30 03:16:08;;;;;;;1.70;1.60;;;21.30;99.90;;;;;;10607473;27;20602;-88
2022/07/30 03:21:14;;;;;;;1.60;1.50;;;21.30;99.90;;;;;;10607734;27;20196;-89
2022/07/30 03:26:20;;;;;;;1.40;1.30;;;21.20;99.90;;;;;;10607435;27;20257;-89
2022/07/30 03:31:22;;;;;;;3.72;1.60;;;21.20;99.90;;;;;;10607297;27;20232;-89
2022/07/30 03:36:30;;;;;;;1.38;1.27;;;21.20;99.90;;;;;;10626086;27;20561;-89
2022/07/30 03:41:35;;;;;;;2.95;1.88;;;21.20;99.90;;;;;;10606864;27;20737;-89
2022/07/30 03:46:43;;;;;;;2.05;1.92;;;21.20;99.90;;;;;;10606931;27;20204;-88
2022/07/30 03:51:47;;;;;;;1.48;1.38;;;21.20;99.90;;;;;;10606783;27;20200;-89
2022/07/30 03:56:50;;;;;;;1.67;1.58;;;21.20;99.90;;;;;;10589765;27;20224;-89
2022/07/30 04:02:08;;;;;;;1.75;1.65;;;21.30;99.90;;;;;;10606527;27;20252;-89
2022/07/30 04:07:49;;;;;;;1.60;1.50;;;21.30;99.90;;;;;;10609128;27;20218;-89
2022/07/30 04:12:55;;;;;;;1.60;1.50;;;21.30;99.90;;;;;;10605776;27;20208;-88
2022/07/30 04:18:03;;;;;;;2.55;1.95;;;21.30;99.90;;;;;;10606983;27;20196;-89
2022/07/30 04:23:06;;;;;;;1.80;1.67;;;21.40;99.90;;;;;;10605755;27;20614;-89
2022/07/30 04:28:10;;;;;;;2.05;1.80;;;21.40;99.90;;;;;;10604401;27;20200;-88
2022/07/30 04:33:13;;;;;;;2.40;1.70;;;21.40;99.90;;;;;;10605732;27;20293;-89
2022/07/30 04:38:15;;;;;;;2.90;2.00;;;21.40;99.90;;;;;;10624109;27;20200;-88
2022/07/30 04:43:22;;;;;;;1.30;1.20;;;21.30;99.90;;;;;;10605064;27;20204;-89
2022/07/30 04:48:27;;;;;;;1.63;1.50;;;21.40;99.90;;;;;;10605207;27;20200;-89
2022/07/30 04:53:46;;;;;;;1.80;1.60;;;21.40;99.90;;;;;;10590961;28;20581;-89
2022/07/30 04:58:53;;;;;;;1.27;1.17;;;21.40;99.90;;;;;;10604444;28;20229;-89
2022/07/30 05:03:57;;;;;;;1.50;1.40;;;21.50;99.90;;;;;;10604964;28;20200;-89
2022/07/30 05:09:00;;;;;;;1.73;1.63;;;21.50;99.90;;;;;;10588047;28;20209;-89
2022/07/30 05:14:03;;;;;;;1.63;1.52;;;21.50;99.90;;;;;;10604022;28;20216;-88
2022/07/30 05:19:05;;;;;;;3.58;1.60;;;21.50;99.90;;;;;;10604704;28;20245;-89
2022/07/30 05:24:10;;;;;;;1.80;1.63;;;21.60;99.90;;;;;;10604136;28;20257;-89
2022/07/30 05:29:22;;;;;;;1.55;1.45;;;21.60;99.90;;;;;;10622959;28;20192;-89
2022/07/30 05:34:31;;;;;;;1.95;1.83;;;21.60;99.90;;;;;;10563118;28;20229;-89
2022/07/30 05:39:34;;;;;;;1.63;1.50;;;21.50;99.90;;;;;;10565893;28;20246;-89
2022/07/30 05:45:16;;;;;;;1.30;1.20;;;21.60;99.90;;;;;;10573002;28;20241;-88
2022/07/30 05:50:20;;;;;;;1.75;1.50;;;21.70;99.90;;;;;;10586079;28;20227;-88
2022/07/30 05:55:23;;;;;;;2.08;1.58;;;21.70;99.90;;;;;;10586123;28;20269;-89
2022/07/30 06:00:30;;;;;;;1.88;1.30;;;21.70;99.90;;;;;;10586225;28;20201;-89
2022/07/30 06:05:33;;;;;;;1.60;1.20;;;21.70;99.90;;;;;;10586112;28;20254;-88
2022/07/30 06:10:36;;;;;;;1.45;1.35;;;21.70;99.90;;;;;;10585601;28;20204;-88
2022/07/30 06:15:39;;;;;;;2.10;1.90;;;21.80;99.90;;;;;;10585718;28;20221;-89
2022/07/30 06:20:41;;;;;;;1.63;1.52;;;21.70;99.90;;;;;;10568091;28;20254;-88
2022/07/30 06:25:50;;;;;;;1.80;1.70;;;21.80;99.90;;;;;;10584515;28;20266;-89
2022/07/30 06:30:53;;;;;;;1.55;1.45;;;21.70;99.90;;;;;;10586903;27;20731;-89
2022/07/30 06:35:58;;;;;;;1.55;1.45;;;21.80;99.90;;;;;;10593201;27;20277;-89
2022/07/30 06:41:06;;;;;;;1.67;1.58;;;21.70;99.90;;;;;;10593200;27;20627;-88
2022/07/30 06:46:31;;;;;;;1.95;1.38;;;21.90;99.90;;;;;;10609626;27;20229;-89
2022/07/30 06:51:34;;;;;;;2.20;1.73;;;21.80;99.90;;;;;;10591929;27;20573;-89
2022/07/30 06:56:36;;;;;;;3.75;1.77;;;21.90;99.90;;;;;;10591807;27;20297;-89
2022/07/30 07:01:42;;;;;;;1.45;1.15;;;22.00;99.90;;;;;;10608636;27;20253;-89
2022/07/30 07:06:46;;;;;;;2.78;1.75;;;21.90;99.90;;;;;;10608550;27;20205;-89
2022/07/30 07:11:55;;;;;;;5.32;1.25;;;21.90;99.90;;;;;;10607842;27;20207;-89
2022/07/30 07:16:58;;;;;;;1.58;1.45;;;21.80;99.90;;;;;;10608499;27;20220;-88
2022/07/30 07:22:24;;;;;;;2.55;1.60;;;21.90;99.90;;;;;;10611897;27;20249;-88
2022/07/30 07:27:27;;;;;;;2.90;1.80;;;22.00;99.90;;;;;;10591165;27;20212;-89
2022/07/30 07:32:35;;;;;;;6.30;2.03;;;22.00;99.90;;;;;;10607527;27;20278;-88
2022/07/30 07:37:38;;;;;;;1.80;1.70;;;22.10;99.90;;;;;;10607065;27;20273;-88
2022/07/30 07:42:43;;;;;;;1.65;1.40;;;22.10;99.90;;;;;;10606559;27;20200;-88
2022/07/30 07:47:48;;;;;;;5.50;2.40;;;22.00;99.90;;;;;;10606699;27;20253;-88
2022/07/30 07:53:19;;;;;;;1.70;1.40;;;22.10;99.90;;;;;;10606118;27;20284;-88
2022/07/30 07:58:21;;;;;;;2.33;1.60;;;22.10;99.90;;;;;;10606169;27;20235;-88
2022/07/30 08:03:28;;;;;;;5.10;2.25;;;22.20;99.90;;;;;;10605426;27;20360;-88
2022/07/30 08:08:40;;;;;;;3.10;1.40;;;22.20;99.90;;;;;;10605750;27;20204;-88
2022/07/30 08:14:01;;;;;;;4.68;2.00;;;22.30;99.90;;;;;;10625687;27;20204;-88
2022/07/30 08:19:26;;;;;;;8.45;2.75;;;22.40;99.90;;;;;;10609665;27;20218;-88
2022/07/30 08:24:44;;;;;;;33.78;5.20;;;22.50;99.90;;;;;;10590902;27;20680;-88
2022/07/30 08:29:47;;;;;;;2.42;2.22;;;22.40;99.90;;;;;;10588729;27;20200;-89
2022/07/30 08:34:49;;;;;;;2.42;2.22;;;22.60;99.90;;;;;;10604991;27;20589;-88
2022/07/30 08:39:53;;;;;;;7.55;3.30;;;22.70;99.90;;;;;;10604724;27;20195;-88
2022/07/30 08:44:56;;;;;;;4.25;1.98;;;22.70;99.90;;;;;;10605522;27;20193;-88
2022/07/30 08:50:05;;;;;;;9.20;3.13;;;22.80;99.90;;;;;;10604862;27;20200;-88
2022/07/30 08:55:11;;;;;;;4.70;3.13;;;22.80;99.90;;;;;;10604812;28;20220;-88
2022/07/30 09:00:15;;;;;;;2.58;2.10;;;22.90;99.90;;;;;;10605238;28;20564;-88
2022/07/30 09:05:18;;;;;;;1.90;1.70;;;22.80;99.90;;;;;;10623170;28;20196;-88
2022/07/30 09:10:22;;;;;;;2.40;1.90;;;22.90;99.90;;;;;;10622978;28;20204;-88
2022/07/30 09:15:27;;;;;;;1.95;1.45;;;22.90;99.90;;;;;;10593940;27;20586;-88
2022/07/30 09:20:33;;;;;;;2.42;1.67;;;23.00;99.90;;;;;;10613505;27;20592;-88
2022/07/30 09:25:45;;;;;;;3.78;1.75;;;22.90;99.90;;;;;;10612495;27;20241;-88
2022/07/30 09:31:13;;;;;;;8.77;2.05;;;22.90;99.90;;;;;;10500469;28;20288;-89
2022/07/30 09:36:47;;;;;;;2.78;1.77;;;22.80;99.90;;;;;;10500060;28;20240;-89
2022/07/30 09:41:53;;;;;;;5.28;1.88;;;22.80;99.90;;;;;;10499896;28;20198;-89
2022/07/30 09:46:57;;;;;;;4.55;1.85;;;22.80;99.90;;;;;;10482406;28;20206;-88
2022/07/30 09:52:04;;;;;;;1.77;1.45;;;22.90;99.90;;;;;;10482325;28;20202;-89
2022/07/30 09:57:11;;;;;;;1.90;1.80;;;22.90;99.90;;;;;;10481962;28;20226;-88
2022/07/30 10:02:32;;;;;;;2.92;1.25;;;22.90;99.90;;;;;;10482070;28;20206;-88
2022/07/30 10:08:02;;;;;;;10.02;1.55;;;22.90;99.90;;;;;;10560636;27;20245;-88
2022/07/30 10:13:19;;;;;;;7.50;1.25;;;23.10;99.90;;;;;;10611474;27;20257;-88
2022/07/30 10:18:24;;;;;;;1.80;1.48;;;23.10;99.90;;;;;;10610700;27;20276;-88
2022/07/30 10:23:46;;;;;;;5.65;1.48;;;23.10;99.90;;;;;;10642727;27;20200;-88
2022/07/30 10:29:30;;;;;;;1.55;1.45;;;22.80;99.90;;;;;;10458984;28;20210;-87
2022/07/30 10:34:37;;;;;;;3.22;1.92;;;22.60;99.90;;;;;;10456566;28;20219;-88
2022/07/30 10:40:11;;;;;;;4.28;1.60;;;22.50;99.90;;;;;;10455568;28;20711;-88
2022/07/30 10:45:25;;;;;;;1.98;1.20;;;22.40;99.90;;;;;;10456280;28;20211;-88
2022/07/30 10:50:28;;;;;;;1.23;1.15;;;22.30;99.90;;;;;;10455960;28;20206;-88
2022/07/30 10:55:36;;;;;;;3.80;1.17;;;22.30;99.90;;;;;;10455466;28;20227;-88
2022/07/30 11:00:52;;;;;;;1.45;1.25;;;22.20;99.90;;;;;;10580596;27;20223;-88
2022/07/30 11:06:13;;;;;;;2.88;1.80;;;22.20;99.90;;;;;;10627848;27;20196;-89
2022/07/30 11:11:19;;;;;;;2.03;1.52;;;22.10;99.90;;;;;;10627121;27;20204;-88
2022/07/30 11:16:42;;;;;;;1.55;1.33;;;22.10;99.90;;;;;;10594503;27;20257;-88
2022/07/30 11:21:46;;;;;;;2.30;1.58;;;22.10;99.90;;;;;;10626893;27;20252;-88
2022/07/30 11:26:50;;;;;;;2.03;1.52;;;22.20;99.90;;;;;;10608356;27;20230;-88
2022/07/30 11:31:55;;;;;;;4.22;1.58;;;22.20;99.90;;;;;;10626593;27;20224;-88
2022/07/30 11:37:09;;;;;;;1.30;1.20;;;22.20;99.90;;;;;;10606950;27;20232;-88
2022/07/30 11:42:24;;;;;;;4.20;1.40;;;22.20;99.90;;;;;;10626034;27;20196;-88
2022/07/30 11:47:28;;;;;;;6.75;1.23;;;22.20;99.90;;;;;;10625831;27;20667;-88
2022/07/30 11:52:32;;;;;;;1.40;1.30;;;22.30;99.90;;;;;;10625957;27;20253;-88
2022/07/30 11:57:41;;;;;;;1.70;1.60;;;22.20;99.90;;;;;;10625332;27;20260;-88
2022/07/30 12:02:45;;;;;;;3.85;1.60;;;22.20;99.90;;;;;;10606419;27;20205;-88
2022/07/30 12:07:47;;;;;;;1.60;1.45;;;22.10;99.90;;;;;;10606002;27;20200;-90
2022/07/30 12:12:50;;;;;;;1.60;1.50;;;22.10;99.90;;;;;;10624622;27;20200;-90
2022/07/30 12:17:52;;;;;;;1.80;1.70;;;22.00;99.90;;;;;;10624294;27;20578;-90
2022/07/30 12:23:15;;;;;;;4.85;1.77;;;22.00;99.90;;;;;;10624434;27;20228;-91
2022/07/30 12:28:32;;;;;;;2.13;1.92;;;22.00;99.90;;;;;;10605908;27;20208;-91
2022/07/30 12:33:37;;;;;;;2.67;1.60;;;21.90;99.90;;;;;;10624102;27;20638;-91
2022/07/30 12:38:46;;;;;;;2.65;2.08;;;21.90;99.90;;;;;;10604822;27;20631;-90
2022/07/30 12:43:54;;;;;;;1.65;1.55;;;21.90;99.90;;;;;;10605582;27;20197;-89
2022/07/30 12:49:04;;;;;;;2.03;1.83;;;21.90;99.90;;;;;;10604946;27;20560;-90
2022/07/30 12:54:24;;;;;;;1.30;1.20;;;21.90;99.90;;;;;;10604675;27;20204;-89
2022/07/30 12:59:28;;;;;;;1.70;1.58;;;21.90;99.90;;;;;;10623381;28;20237;-89
2022/07/30 13:04:30;;;;;;;1.50;1.40;;;21.90;99.90;;;;;;10604441;28;20612;-89
2022/07/30 13:09:39;;;;;;;1.85;1.48;;;21.80;99.90;;;;;;10604341;28;20200;-90
2022/07/30 13:14:41;;;;;;;1.38;1.27;;;21.80;99.90;;;;;;10623028;28;20196;-89
2022/07/30 13:19:44;;;;;;;1.50;1.40;;;21.90;99.90;;;;;;10622864;28;20265;-89
2022/07/30 13:24:46;;;;;;;1.33;1.23;;;21.90;99.90;;;;;;10604881;28;20192;-90
2022/07/30 13:29:49;;;;;;;1.70;1.38;;;21.80;99.90;;;;;;10622681;28;20196;-89
2022/07/30 13:34:51;;;;;;;1.35;1.25;;;21.60;99.90;;;;;;10604386;28;20777;-90
2022/07/30 13:39:54;;;;;;;5.32;1.90;;;21.70;99.90;;;;;;10587258;28;20704;-90
2022/07/30 13:44:57;;;;;;;1.30;1.20;;;21.70;99.90;;;;;;10603628;28;20300;-90
2022/07/30 13:49:59;;;;;;;1.48;1.38;;;21.70;99.90;;;;;;10604593;28;20238;-90
2022/07/30 13:55:02;;;;;;;1.42;1.33;;;21.70;99.90;;;;;;10603412;28;20274;-90
2022/07/30 14:00:06;;;;;;;1.80;1.50;;;21.70;99.90;;;;;;10607624;27;20220;-90
2022/07/30 14:05:09;;;;;;;1.95;1.75;;;21.80;99.90;;;;;;10594093;27;20249;-91
2022/07/30 14:10:12;;;;;;;1.52;1.42;;;21.80;99.90;;;;;;10610385;27;20234;-90
2022/07/30 14:15:14;;;;;;;1.95;1.85;;;21.60;99.90;;;;;;10629317;27;20249;-90
2022/07/30 14:20:19;;;;;;;1.50;1.40;;;21.70;99.90;;;;;;10629356;27;20184;-90
2022/07/30 14:25:22;;;;;;;1.77;1.65;;;21.70;99.90;;;;;;10629002;27;20214;-90
2022/07/30 14:30:25;;;;;;;1.38;1.27;;;21.70;99.90;;;;;;10609892;27;20612;-91
2022/07/30 14:35:27;;;;;;;1.48;1.38;;;21.70;99.90;;;;;;10610477;27;20249;-90
2022/07/30 14:40:30;;;;;;;1.95;1.50;;;21.70;99.90;;;;;;10628560;27;20245;-90
2022/07/30 14:45:32;;;;;;;2.13;1.73;;;21.70;99.90;;;;;;10609446;27;20200;-91
2022/07/30 14:50:35;;;;;;;2.25;1.50;;;21.80;99.90;;;;;;10628054;27;20233;-91
2022/07/30 14:55:57;;;;;;;1.60;1.42;;;21.70;99.90;;;;;;10627868;27;20241;-91
2022/07/30 15:01:00;;;;;;;1.95;1.50;;;21.60;99.90;;;;;;10608766;27;20222;-90
2022/07/30 15:06:16;;;;;;;1.42;1.17;;;21.60;99.90;;;;;;10627613;27;20252;-91
2022/07/30 15:11:19;;;;;;;1.58;1.48;;;21.50;99.90;;;;;;10626613;27;20200;-91
2022/07/30 15:16:23;;;;;;;1.40;1.30;;;21.60;99.90;;;;;;10608136;27;20277;-91
2022/07/30 15:21:25;;;;;;;1.58;1.48;;;21.70;99.90;;;;;;10608030;27;20665;-90
2022/07/30 15:26:28;;;;;;;1.40;1.30;;;21.50;99.90;;;;;;10626660;27;20196;-92
2022/07/30 15:31:30;;;;;;;3.20;1.88;;;21.60;99.90;;;;;;10608150;27;20269;-91
2022/07/30 15:36:33;;;;;;;1.67;1.58;;;21.60;99.90;;;;;;10607883;27;20288;-90
2022/07/30 15:41:36;;;;;;;1.67;1.58;;;21.70;99.90;;;;;;10625914;27;20660;-90
2022/07/30 15:46:39;;;;;;;1.63;1.52;;;21.70;99.90;;;;;;10607563;27;20257;-90
2022/07/30 15:51:47;;;;;;;1.48;1.38;;;21.50;99.90;;;;;;10625527;27;20226;-90
2022/07/30 15:56:52;;;;;;;1.52;1.42;;;21.60;99.90;;;;;;10606277;27;20216;-90
2022/07/30 16:01:55;;;;;;;1.67;1.58;;;21.50;99.90;;;;;;10625121;27;20214;-90
2022/07/30 16:07:03;;;;;;;1.60;1.40;;;21.50;99.90;;;;;;10625030;27;20241;-90
2022/07/30 16:12:06;;;;;;;2.17;1.58;;;21.50;99.90;;;;;;10606332;27;20282;-90
2022/07/30 16:17:12;;;;;;;1.20;1.10;;;21.50;99.90;;;;;;10624478;27;20208;-91
2022/07/30 16:22:15;;;;;;;1.70;1.60;;;21.50;99.90;;;;;;10605697;27;20188;-90
2022/07/30 16:27:25;;;;;;;1.35;1.25;;;21.50;99.90;;;;;;10605998;27;20234;-90
2022/07/30 16:32:27;;;;;;;1.60;1.42;;;21.50;99.90;;;;;;10605471;27;20232;-90
2022/07/30 16:37:34;;;;;;;1.52;1.42;;;21.50;99.90;;;;;;10606706;27;20212;-91
2022/07/30 16:42:36;;;;;;;1.73;1.63;;;21.50;99.90;;;;;;10604990;27;20592;-91
2022/07/30 16:47:39;;;;;;;2.63;1.38;;;21.30;99.90;;;;;;10588428;27;20200;-92
2022/07/30 16:52:41;;;;;;;1.60;1.50;;;21.40;99.90;;;;;;10605762;27;20607;-91
2022/07/30 16:57:44;;;;;;;1.38;1.17;;;21.40;99.90;;;;;;10604641;28;20220;-91
2022/07/30 17:02:46;;;;;;;1.45;1.33;;;21.40;99.90;;;;;;10604669;28;20245;-91
2022/07/30 17:07:49;;;;;;;1.42;1.33;;;21.40;99.90;;;;;;10623617;28;20192;-91
2022/07/30 17:12:52;;;;;;;2.08;1.75;;;21.40;99.90;;;;;;10605137;28;20602;-91
2022/07/30 17:17:55;;;;;;;1.73;1.40;;;21.40;99.90;;;;;;10604648;28;20632;-91
2022/07/30 17:22:57;;;;;;;1.90;1.60;;;21.40;99.90;;;;;;10604783;28;20200;-91
2022/07/30 17:28:00;;;;;;;1.45;1.35;;;21.30;99.90;;;;;;10604190;28;20737;-91
2022/07/30 17:33:05;;;;;;;1.48;1.17;;;21.40;99.90;;;;;;10605291;27;20285;-91
2022/07/30 17:38:07;;;;;;;1.35;1.27;;;21.40;99.90;;;;;;10612482;27;20253;-91
2022/07/30 17:43:12;;;;;;;1.70;1.60;;;21.40;99.90;;;;;;10631030;27;20196;-91
2022/07/30 17:48:16;;;;;;;1.92;1.73;;;21.40;99.90;;;;;;10612490;27;20234;-91
2022/07/30 17:53:19;;;;;;;1.40;1.30;;;21.40;99.90;;;;;;10612112;27;20196;-91
2022/07/30 17:58:21;;;;;;;1.55;1.45;;;21.40;99.90;;;;;;10630605;27;20208;-90
2022/07/30 18:03:24;;;;;;;1.40;1.30;;;21.40;99.90;;;;;;10630809;27;20189;-91
2022/07/30 18:08:31;;;;;;;1.80;1.70;;;21.40;99.90;;;;;;10611288;27;20196;-91
2022/07/30 18:13:35;;;;;;;1.58;1.48;;;21.40;99.90;;;;;;10611546;27;20273;-90
2022/07/30 18:18:38;;;;;;;1.73;1.63;;;21.40;99.90;;;;;;10611503;27;20584;-91
2022/07/30 18:23:41;;;;;;;2.28;1.35;;;21.40;99.90;;;;;;10594024;27;20208;-91
2022/07/30 18:28:46;;;;;;;1.58;1.48;;;21.40;99.90;;;;;;10629142;27;20560;-91
2022/07/30 18:33:48;;;;;;;1.88;1.77;;;21.40;99.90;;;;;;10628866;27;20257;-91
2022/07/30 18:38:51;;;;;;;1.35;1.25;;;21.40;99.90;;;;;;10610418;27;20212;-91
2022/07/30 18:43:54;;;;;;;1.65;1.55;;;21.40;99.90;;;;;;10628541;27;20200;-91
2022/07/30 18:48:57;;;;;;;2.70;1.38;;;21.40;99.90;;;;;;10609324;27;20188;-91
2022/07/30 18:54:19;;;;;;;1.73;1.63;;;21.40;99.90;;;;;;10628134;27;20196;-91
2022/07/30 18:59:22;;;;;;;1.80;1.70;;;21.30;99.90;;;;;;10609621;27;20619;-91
2022/07/30 19:04:25;;;;;;;1.67;1.58;;;21.40;99.90;;;;;;10627607;27;20192;-91
2022/07/30 19:09:27;;;;;;;2.17;1.83;;;21.40;99.90;;;;;;10609144;27;20245;-91
2022/07/30 19:14:30;;;;;;;1.92;1.73;;;21.40;99.90;;;;;;10608877;27;20245;-91
2022/07/30 19:19:32;;;;;;;1.58;1.48;;;21.30;99.90;;;;;;10627309;27;20591;-92
2022/07/30 19:24:35;;;;;;;1.70;1.60;;;21.30;99.90;;;;;;10626723;27;20300;-91
2022/07/30 19:29:39;;;;;;;2.53;1.80;;;21.30;99.90;;;;;;10608377;27;20253;-91
2022/07/30 19:34:42;;;;;;;2.00;1.80;;;21.30;99.90;;;;;;10608425;27;20280;-91
2022/07/30 19:39:44;;;;;;;1.55;1.30;;;21.30;99.90;;;;;;10626218;27;20561;-92
2022/07/30 19:45:08;;;;;;;2.13;1.85;;;21.30;99.90;;;;;;10607724;27;20208;-92
2022/07/30 19:50:30;;;;;;;1.52;1.42;;;21.30;99.90;;;;;;10626090;27;20192;-91
2022/07/30 19:55:36;;;;;;;1.67;1.58;;;21.30;99.90;;;;;;10607223;27;20212;-92
2022/07/30 20:00:38;;;;;;;2.25;1.95;;;21.30;99.90;;;;;;10606300;27;20225;-90
2022/07/30 20:05:41;;;;;;;1.90;1.75;;;21.30;99.90;;;;;;10606633;27;20569;-91
2022/07/30 20:11:06;;;;;;;3.72;3.42;;;21.30;99.90;;;;;;10609710;27;20268;-90
2022/07/30 20:16:10;;;;;;;2.25;1.92;;;21.00;99.90;;;;;;10606731;27;20214;-92
2022/07/30 20:21:14;;;;;;;2.35;2.15;;;21.20;99.90;;;;;;10606455;27;20212;-92
2022/07/30 20:26:36;;;;;;;2.03;1.83;;;21.20;99.90;;;;;;10605597;27;20205;-91
2022/07/30 20:31:39;;;;;;;2.40;2.20;;;21.20;99.90;;;;;;10589008;27;20293;-91
2022/07/30 20:36:43;;;;;;;2.70;2.50;;;21.20;99.90;;;;;;10607014;27;20192;-92
2022/07/30 20:41:46;;;;;;;2.22;1.90;;;21.30;99.90;;;;;;10605977;27;20192;-91
2022/07/30 20:46:48;;;;;;;1.88;1.60;;;20.70;99.90;;;;;;10623915;27;20188;-91
2022/07/30 20:51:51;;;;;;;3.63;3.33;;;20.80;99.90;;;;;;10623848;27;20197;-91
2022/07/30 20:56:55;;;;;;;2.35;2.15;;;20.70;99.90;;;;;;10605657;27;20233;-91
2022/07/30 21:01:57;;;;;;;2.75;2.00;;;20.80;99.90;;;;;;10623554;28;20560;-91
2022/07/30 21:07:01;;;;;;;2.80;2.15;;;21.00;99.90;;;;;;10623908;28;20229;-92
2022/07/30 21:12:04;;;;;;;2.33;2.13;;;21.10;99.90;;;;;;10630781;27;20196;-91
2022/07/30 21:17:07;;;;;;;2.58;2.33;;;21.00;99.90;;;;;;10632185;27;20188;-91
2022/07/30 21:22:11;;;;;;;2.40;2.20;;;21.20;99.90;;;;;;10613622;27;20583;-92
2022/07/30 21:27:14;;;;;;;2.10;1.85;;;21.20;99.90;;;;;;10613715;27;20204;-91
2022/07/30 21:32:18;;;;;;;2.15;1.95;;;21.20;99.90;;;;;;10632103;27;20224;-91
2022/07/30 21:37:27;;;;;;;2.95;2.25;;;21.20;99.90;;;;;;10614229;27;20201;-91
2022/07/30 21:42:38;;;;;;;2.22;1.75;;;21.20;99.90;;;;;;10631386;27;20192;-91
2022/07/30 21:47:50;;;;;;;2.53;2.33;;;21.20;99.90;;;;;;10612610;27;20253;-89
2022/07/30 21:52:52;;;;;;;1.95;1.85;;;21.20;99.90;;;;;;10612240;27;20201;-91
2022/07/30 21:57:56;;;;;;;2.38;2.03;;;21.20;99.90;;;;;;10630293;27;20237;-91
2022/07/30 22:02:58;;;;;;;2.40;2.20;;;21.20;99.90;;;;;;10611415;27;20196;-91
2022/07/30 22:08:01;;;;;;;2.33;2.13;;;21.20;99.90;;;;;;10612252;27;20188;-90
2022/07/30 22:13:04;;;;;;;2.90;2.40;;;21.20;99.90;;;;;;10612011;27;20197;-90
2022/07/30 22:18:06;;;;;;;2.47;2.28;;;21.20;99.90;;;;;;10610985;27;20224;-90
2022/07/30 22:23:09;;;;;;;2.50;2.20;;;21.20;99.90;;;;;;10609996;27;20602;-90
2022/07/30 22:28:13;;;;;;;2.20;2.00;;;21.20;99.90;;;;;;10629103;27;20565;-90
2022/07/30 22:33:18;;;;;;;2.50;2.30;;;21.20;99.90;;;;;;10628922;27;20220;-90
2022/07/30 22:38:21;;;;;;;1.90;1.80;;;21.20;99.90;;;;;;10610774;27;20220;-90
2022/07/30 22:43:25;;;;;;;2.42;2.22;;;21.20;99.90;;;;;;10610807;27;20188;-90
2022/07/30 22:48:42;;;;;;;2.58;2.38;;;21.20;99.90;;;;;;10594575;27;20261;-91
2022/07/30 22:53:44;;;;;;;3.20;2.47;;;21.20;99.90;;;;;;10628303;27;20237;-90
2022/07/30 22:59:07;;;;;;;2.13;1.92;;;21.20;99.90;;;;;;10609055;27;20223;-91
2022/07/30 23:04:10;;;;;;;2.33;2.13;;;21.20;99.90;;;;;;10592956;27;20241;-91
2022/07/30 23:09:12;;;;;;;2.30;2.10;;;21.10;99.90;;;;;;10627918;27;20196;-90
2022/07/30 23:14:16;;;;;;;2.35;2.15;;;21.20;99.90;;;;;;10592188;27;20253;-90
2022/07/30 23:19:19;;;;;;;2.70;2.25;;;21.20;99.90;;;;;;10608235;27;20272;-90
2022/07/30 23:24:23;;;;;;;2.50;2.30;;;21.20;99.90;;;;;;10591666;27;20253;-91
2022/07/30 23:29:27;;;;;;;2.10;1.83;;;21.10;99.90;;;;;;10626582;27;20196;-89
2022/07/30 23:34:30;;;;;;;2.42;2.22;;;21.10;99.90;;;;;;10626096;27;20273;-90
2022/07/30 23:39:32;;;;;;;3.15;2.30;;;21.20;99.90;;;;;;10608043;27;20618;-90
2022/07/30 23:44:36;;;;;;;2.60;2.40;;;21.20;99.90;;;;;;10607767;27;20222;-90
2022/07/30 23:49:38;;;;;;;2.33;2.13;;;21.10;99.90;;;;;;10625683;27;20213;-90
2022/07/30 23:54:41;;;;;;;2.42;2.22;;;21.10;99.90;;;;;;10606823;27;20200;-90
2022/07/30 23:59:44;;;;;;;3.20;2.90;;;21.10;99.90;;;;;;10625114;27;20574;-90
